sensor_id;sensor_type;location;lat;lon;timestamp;P1;durP1;ratioP1;P2;durP2;ratioP2
10174;SDS011;18221;38.704;0.152;2023-03-13T00:02:52;5.13;;;4.10;;
10174;SDS011;18221;38.704;0.152;2023-03-13T00:05:23;5.87;;;4.50;;
10174;SDS011;18221;38.704;0.152;2023-03-13T00:07:51;5.90;;;4.40;;
10174;SDS011;18221;38.704;0.152;2023-03-13T00:10:19;5.77;;;4.20;;
10174;SDS011;18221;38.704;0.152;2023-03-13T00:12:48;8.30;;;4.50;;
10174;SDS011;18221;38.704;0.152;2023-03-13T00:15:16;4.67;;;3.90;;
10174;SDS011;18221;38.704;0.152;2023-03-13T00:17:44;6.83;;;4.37;;
10174;SDS011;18221;38.704;0.152;2023-03-13T00:20:14;4.80;;;4.10;;
10174;SDS011;18221;38.704;0.152;2023-03-13T00:22:43;5.07;;;3.63;;
10174;SDS011;18221;38.704;0.152;2023-03-13T00:25:11;5.97;;;4.10;;
10174;SDS011;18221;38.704;0.152;2023-03-13T00:27:40;4.43;;;3.93;;
10174;SDS011;18221;38.704;0.152;2023-03-13T00:30:09;5.97;;;4.23;;
10174;SDS011;18221;38.704;0.152;2023-03-13T00:32:39;4.57;;;3.90;;
10174;SDS011;18221;38.704;0.152;2023-03-13T00:35:08;6.67;;;4.13;;
10174;SDS011;18221;38.704;0.152;2023-03-13T00:37:38;5.40;;;3.90;;
10174;SDS011;18221;38.704;0.152;2023-03-13T00:40:08;5.00;;;4.10;;
10174;SDS011;18221;38.704;0.152;2023-03-13T00:42:37;5.50;;;4.00;;
10174;SDS011;18221;38.704;0.152;2023-03-13T00:45:06;4.80;;;3.90;;
10174;SDS011;18221;38.704;0.152;2023-03-13T00:47:35;5.73;;;3.93;;
10174;SDS011;18221;38.704;0.152;2023-03-13T00:50:04;4.67;;;4.10;;
10174;SDS011;18221;38.704;0.152;2023-03-13T00:52:33;6.83;;;4.30;;
10174;SDS011;18221;38.704;0.152;2023-03-13T00:55:03;6.33;;;4.63;;
10174;SDS011;18221;38.704;0.152;2023-03-13T00:57:33;6.43;;;4.20;;
10174;SDS011;18221;38.704;0.152;2023-03-13T01:00:02;4.70;;;4.10;;
10174;SDS011;18221;38.704;0.152;2023-03-13T01:02:32;8.00;;;4.83;;
10174;SDS011;18221;38.704;0.152;2023-03-13T01:05:00;7.10;;;4.37;;
10174;SDS011;18221;38.704;0.152;2023-03-13T01:07:28;7.53;;;4.87;;
10174;SDS011;18221;38.704;0.152;2023-03-13T01:09:57;6.33;;;4.93;;
10174;SDS011;18221;38.704;0.152;2023-03-13T01:12:27;4.67;;;4.20;;
10174;SDS011;18221;38.704;0.152;2023-03-13T01:14:57;6.73;;;4.97;;
10174;SDS011;18221;38.704;0.152;2023-03-13T01:17:25;4.80;;;4.33;;
10174;SDS011;18221;38.704;0.152;2023-03-13T01:19:55;6.17;;;4.47;;
10174;SDS011;18221;38.704;0.152;2023-03-13T01:22:25;6.17;;;4.13;;
10174;SDS011;18221;38.704;0.152;2023-03-13T01:24:54;5.70;;;4.57;;
10174;SDS011;18221;38.704;0.152;2023-03-13T01:27:22;6.80;;;4.87;;
10174;SDS011;18221;38.704;0.152;2023-03-13T01:29:52;6.73;;;4.80;;
10174;SDS011;18221;38.704;0.152;2023-03-13T01:32:21;8.63;;;5.10;;
10174;SDS011;18221;38.704;0.152;2023-03-13T01:34:49;9.10;;;5.67;;
10174;SDS011;18221;38.704;0.152;2023-03-13T01:37:18;7.43;;;5.03;;
10174;SDS011;18221;38.704;0.152;2023-03-13T01:39:46;6.73;;;4.63;;
10174;SDS011;18221;38.704;0.152;2023-03-13T01:42:14;6.37;;;4.77;;
10174;SDS011;18221;38.704;0.152;2023-03-13T01:44:49;7.07;;;4.77;;
10174;SDS011;18221;38.704;0.152;2023-03-13T01:47:21;7.10;;;4.80;;
10174;SDS011;18221;38.704;0.152;2023-03-13T01:49:49;8.50;;;4.60;;
10174;SDS011;18221;38.704;0.152;2023-03-13T01:52:19;9.07;;;4.90;;
10174;SDS011;18221;38.704;0.152;2023-03-13T01:54:53;9.37;;;4.60;;
10174;SDS011;18221;38.704;0.152;2023-03-13T01:57:28;6.47;;;4.60;;
10174;SDS011;18221;38.704;0.152;2023-03-13T02:00:05;7.30;;;4.60;;
10174;SDS011;18221;38.704;0.152;2023-03-13T02:02:40;6.87;;;4.40;;
10174;SDS011;18221;38.704;0.152;2023-03-13T02:05:14;7.00;;;4.20;;
10174;SDS011;18221;38.704;0.152;2023-03-13T02:07:46;6.40;;;4.23;;
10174;SDS011;18221;38.704;0.152;2023-03-13T02:10:21;5.10;;;3.80;;
10174;SDS011;18221;38.704;0.152;2023-03-13T02:12:52;8.47;;;4.83;;
10174;SDS011;18221;38.704;0.152;2023-03-13T02:15:23;7.03;;;4.57;;
10174;SDS011;18221;38.704;0.152;2023-03-13T02:17:53;8.93;;;5.27;;
10174;SDS011;18221;38.704;0.152;2023-03-13T02:20:24;6.13;;;5.03;;
10174;SDS011;18221;38.704;0.152;2023-03-13T02:22:53;9.70;;;6.07;;
10174;SDS011;18221;38.704;0.152;2023-03-13T02:25:33;7.00;;;5.97;;
10174;SDS011;18221;38.704;0.152;2023-03-13T02:28:09;10.10;;;6.77;;
10174;SDS011;18221;38.704;0.152;2023-03-13T02:30:43;12.10;;;6.83;;
10174;SDS011;18221;38.704;0.152;2023-03-13T02:33:14;11.67;;;7.77;;
10174;SDS011;18221;38.704;0.152;2023-03-13T02:35:45;12.10;;;8.40;;
10174;SDS011;18221;38.704;0.152;2023-03-13T02:38:16;11.20;;;7.70;;
10174;SDS011;18221;38.704;0.152;2023-03-13T02:40:52;17.23;;;8.37;;
10174;SDS011;18221;38.704;0.152;2023-03-13T02:43:25;15.80;;;10.03;;
10174;SDS011;18221;38.704;0.152;2023-03-13T02:46:05;13.70;;;8.60;;
10174;SDS011;18221;38.704;0.152;2023-03-13T02:48:38;14.73;;;9.27;;
10174;SDS011;18221;38.704;0.152;2023-03-13T02:51:12;13.37;;;8.50;;
10174;SDS011;18221;38.704;0.152;2023-03-13T02:53:50;11.37;;;8.20;;
10174;SDS011;18221;38.704;0.152;2023-03-13T02:56:28;17.00;;;9.37;;
10174;SDS011;18221;38.704;0.152;2023-03-13T02:59:00;17.97;;;10.27;;
10174;SDS011;18221;38.704;0.152;2023-03-13T03:01:29;13.37;;;9.20;;
10174;SDS011;18221;38.704;0.152;2023-03-13T03:03:57;15.80;;;9.77;;
10174;SDS011;18221;38.704;0.152;2023-03-13T03:06:25;14.97;;;8.93;;
10174;SDS011;18221;38.704;0.152;2023-03-13T03:08:54;14.67;;;8.73;;
10174;SDS011;18221;38.704;0.152;2023-03-13T03:11:22;16.67;;;9.60;;
10174;SDS011;18221;38.704;0.152;2023-03-13T03:13:52;16.40;;;10.03;;
10174;SDS011;18221;38.704;0.152;2023-03-13T03:16:20;13.90;;;8.70;;
10174;SDS011;18221;38.704;0.152;2023-03-13T03:18:48;16.10;;;9.63;;
10174;SDS011;18221;38.704;0.152;2023-03-13T03:21:22;20.23;;;10.60;;
10174;SDS011;18221;38.704;0.152;2023-03-13T03:23:50;15.10;;;10.37;;
10174;SDS011;18221;38.704;0.152;2023-03-13T03:26:19;15.87;;;10.53;;
10174;SDS011;18221;38.704;0.152;2023-03-13T03:28:47;17.03;;;10.73;;
10174;SDS011;18221;38.704;0.152;2023-03-13T03:31:17;18.10;;;11.40;;
10174;SDS011;18221;38.704;0.152;2023-03-13T03:33:46;18.30;;;11.60;;
10174;SDS011;18221;38.704;0.152;2023-03-13T03:36:15;17.60;;;10.23;;
10174;SDS011;18221;38.704;0.152;2023-03-13T03:38:45;16.47;;;9.70;;
10174;SDS011;18221;38.704;0.152;2023-03-13T03:41:14;13.60;;;9.90;;
10174;SDS011;18221;38.704;0.152;2023-03-13T03:43:43;16.80;;;10.60;;
10174;SDS011;18221;38.704;0.152;2023-03-13T03:46:16;16.10;;;9.20;;
10174;SDS011;18221;38.704;0.152;2023-03-13T03:48:46;15.53;;;8.30;;
10174;SDS011;18221;38.704;0.152;2023-03-13T03:51:14;16.47;;;9.97;;
10174;SDS011;18221;38.704;0.152;2023-03-13T03:53:42;14.47;;;9.20;;
10174;SDS011;18221;38.704;0.152;2023-03-13T03:56:12;12.33;;;8.47;;
10174;SDS011;18221;38.704;0.152;2023-03-13T03:58:40;13.37;;;8.50;;
10174;SDS011;18221;38.704;0.152;2023-03-13T04:01:09;11.03;;;8.57;;
10174;SDS011;18221;38.704;0.152;2023-03-13T04:03:38;14.57;;;8.50;;
10174;SDS011;18221;38.704;0.152;2023-03-13T04:06:07;13.47;;;9.13;;
10174;SDS011;18221;38.704;0.152;2023-03-13T04:08:35;15.27;;;9.70;;
10174;SDS011;18221;38.704;0.152;2023-03-13T04:11:03;12.53;;;8.10;;
10174;SDS011;18221;38.704;0.152;2023-03-13T04:13:32;9.47;;;7.40;;
10174;SDS011;18221;38.704;0.152;2023-03-13T04:16:05;10.47;;;7.40;;
10174;SDS011;18221;38.704;0.152;2023-03-13T04:18:34;12.80;;;7.27;;
10174;SDS011;18221;38.704;0.152;2023-03-13T04:21:04;11.37;;;7.13;;
10174;SDS011;18221;38.704;0.152;2023-03-13T04:23:33;11.80;;;6.90;;
10174;SDS011;18221;38.704;0.152;2023-03-13T04:26:02;10.10;;;7.37;;
10174;SDS011;18221;38.704;0.152;2023-03-13T04:28:30;10.97;;;7.53;;
10174;SDS011;18221;38.704;0.152;2023-03-13T04:30:59;11.93;;;7.57;;
10174;SDS011;18221;38.704;0.152;2023-03-13T04:33:27;10.20;;;6.63;;
10174;SDS011;18221;38.704;0.152;2023-03-13T04:35:56;13.40;;;7.57;;
10174;SDS011;18221;38.704;0.152;2023-03-13T04:38:26;9.77;;;6.87;;
10174;SDS011;18221;38.704;0.152;2023-03-13T04:40:54;11.57;;;7.90;;
10174;SDS011;18221;38.704;0.152;2023-03-13T04:43:23;10.53;;;8.13;;
10174;SDS011;18221;38.704;0.152;2023-03-13T04:45:51;11.70;;;8.00;;
10174;SDS011;18221;38.704;0.152;2023-03-13T04:48:20;10.23;;;7.67;;
10174;SDS011;18221;38.704;0.152;2023-03-13T04:50:48;11.57;;;8.23;;
10174;SDS011;18221;38.704;0.152;2023-03-13T04:53:16;12.23;;;8.43;;
10174;SDS011;18221;38.704;0.152;2023-03-13T04:55:46;13.83;;;8.47;;
10174;SDS011;18221;38.704;0.152;2023-03-13T04:58:16;13.93;;;8.43;;
10174;SDS011;18221;38.704;0.152;2023-03-13T05:00:45;11.83;;;8.33;;
10174;SDS011;18221;38.704;0.152;2023-03-13T05:03:13;15.00;;;8.53;;
10174;SDS011;18221;38.704;0.152;2023-03-13T05:05:41;12.63;;;8.63;;
10174;SDS011;18221;38.704;0.152;2023-03-13T05:08:10;13.83;;;8.30;;
10174;SDS011;18221;38.704;0.152;2023-03-13T05:10:40;13.03;;;7.67;;
10174;SDS011;18221;38.704;0.152;2023-03-13T05:13:10;12.43;;;6.63;;
10174;SDS011;18221;38.704;0.152;2023-03-13T05:15:39;9.00;;;6.30;;
10174;SDS011;18221;38.704;0.152;2023-03-13T05:18:07;9.03;;;6.20;;
10174;SDS011;18221;38.704;0.152;2023-03-13T05:20:36;8.87;;;7.03;;
10174;SDS011;18221;38.704;0.152;2023-03-13T05:23:04;10.03;;;7.70;;
10174;SDS011;18221;38.704;0.152;2023-03-13T05:25:33;11.67;;;7.57;;
10174;SDS011;18221;38.704;0.152;2023-03-13T05:28:01;9.90;;;6.90;;
10174;SDS011;18221;38.704;0.152;2023-03-13T05:30:32;11.40;;;7.03;;
10174;SDS011;18221;38.704;0.152;2023-03-13T05:33:00;10.97;;;7.03;;
10174;SDS011;18221;38.704;0.152;2023-03-13T05:35:29;14.47;;;7.27;;
10174;SDS011;18221;38.704;0.152;2023-03-13T05:37:57;12.93;;;7.80;;
10174;SDS011;18221;38.704;0.152;2023-03-13T05:40:25;8.20;;;6.73;;
10174;SDS011;18221;38.704;0.152;2023-03-13T05:42:54;9.83;;;7.27;;
10174;SDS011;18221;38.704;0.152;2023-03-13T05:45:22;15.30;;;7.17;;
10174;SDS011;18221;38.704;0.152;2023-03-13T05:47:52;11.87;;;7.60;;
10174;SDS011;18221;38.704;0.152;2023-03-13T05:50:20;11.27;;;7.10;;
10174;SDS011;18221;38.704;0.152;2023-03-13T05:52:48;10.83;;;6.80;;
10174;SDS011;18221;38.704;0.152;2023-03-13T05:55:17;9.23;;;6.17;;
10174;SDS011;18221;38.704;0.152;2023-03-13T05:57:46;10.57;;;6.20;;
10174;SDS011;18221;38.704;0.152;2023-03-13T06:00:15;11.47;;;7.10;;
10174;SDS011;18221;38.704;0.152;2023-03-13T06:02:44;11.80;;;6.20;;
10174;SDS011;18221;38.704;0.152;2023-03-13T06:05:14;7.63;;;5.93;;
10174;SDS011;18221;38.704;0.152;2023-03-13T06:07:43;7.37;;;6.47;;
10174;SDS011;18221;38.704;0.152;2023-03-13T06:10:11;11.17;;;6.97;;
10174;SDS011;18221;38.704;0.152;2023-03-13T06:12:39;11.30;;;6.87;;
10174;SDS011;18221;38.704;0.152;2023-03-13T06:15:08;8.37;;;6.70;;
10174;SDS011;18221;38.704;0.152;2023-03-13T06:17:37;8.97;;;6.60;;
10174;SDS011;18221;38.704;0.152;2023-03-13T06:20:06;11.60;;;6.00;;
10174;SDS011;18221;38.704;0.152;2023-03-13T06:22:37;6.47;;;5.20;;
10174;SDS011;18221;38.704;0.152;2023-03-13T06:25:07;8.17;;;5.50;;
10174;SDS011;18221;38.704;0.152;2023-03-13T06:27:36;7.00;;;5.40;;
10174;SDS011;18221;38.704;0.152;2023-03-13T06:30:05;6.70;;;5.30;;
10174;SDS011;18221;38.704;0.152;2023-03-13T06:32:36;5.20;;;4.70;;
10174;SDS011;18221;38.704;0.152;2023-03-13T06:35:04;8.73;;;4.93;;
10174;SDS011;18221;38.704;0.152;2023-03-13T06:37:33;5.73;;;4.53;;
10174;SDS011;18221;38.704;0.152;2023-03-13T06:40:04;8.20;;;5.03;;
10174;SDS011;18221;38.704;0.152;2023-03-13T06:42:34;6.47;;;4.83;;
10174;SDS011;18221;38.704;0.152;2023-03-13T06:45:02;6.63;;;4.77;;
10174;SDS011;18221;38.704;0.152;2023-03-13T06:47:32;7.40;;;4.90;;
10174;SDS011;18221;38.704;0.152;2023-03-13T06:50:01;7.33;;;4.60;;
10174;SDS011;18221;38.704;0.152;2023-03-13T06:52:29;6.77;;;4.73;;
10174;SDS011;18221;38.704;0.152;2023-03-13T06:54:58;6.60;;;4.30;;
10174;SDS011;18221;38.704;0.152;2023-03-13T06:57:28;7.07;;;4.37;;
10174;SDS011;18221;38.704;0.152;2023-03-13T06:59:56;6.27;;;4.20;;
10174;SDS011;18221;38.704;0.152;2023-03-13T07:02:25;7.30;;;4.50;;
10174;SDS011;18221;38.704;0.152;2023-03-13T07:04:54;6.87;;;4.17;;
10174;SDS011;18221;38.704;0.152;2023-03-13T07:07:22;5.23;;;4.13;;
10174;SDS011;18221;38.704;0.152;2023-03-13T07:09:51;5.53;;;4.07;;
10174;SDS011;18221;38.704;0.152;2023-03-13T07:12:20;7.33;;;4.30;;
10174;SDS011;18221;38.704;0.152;2023-03-13T07:14:50;9.97;;;4.50;;
10174;SDS011;18221;38.704;0.152;2023-03-13T07:17:18;6.47;;;4.30;;
10174;SDS011;18221;38.704;0.152;2023-03-13T07:19:47;9.87;;;5.00;;
10174;SDS011;18221;38.704;0.152;2023-03-13T07:22:17;8.20;;;4.20;;
10174;SDS011;18221;38.704;0.152;2023-03-13T07:24:46;7.53;;;4.50;;
10174;SDS011;18221;38.704;0.152;2023-03-13T07:27:16;5.87;;;4.20;;
10174;SDS011;18221;38.704;0.152;2023-03-13T07:29:45;8.90;;;4.20;;
10174;SDS011;18221;38.704;0.152;2023-03-13T07:32:15;13.97;;;4.93;;
10174;SDS011;18221;38.704;0.152;2023-03-13T07:34:44;6.47;;;4.00;;
10174;SDS011;18221;38.704;0.152;2023-03-13T07:37:13;8.53;;;4.40;;
10174;SDS011;18221;38.704;0.152;2023-03-13T07:39:42;7.33;;;3.90;;
10174;SDS011;18221;38.704;0.152;2023-03-13T07:42:11;8.30;;;3.80;;
10174;SDS011;18221;38.704;0.152;2023-03-13T07:44:39;7.37;;;3.93;;
10174;SDS011;18221;38.704;0.152;2023-03-13T07:47:07;4.60;;;3.67;;
10174;SDS011;18221;38.704;0.152;2023-03-13T07:49:37;6.40;;;3.60;;
10174;SDS011;18221;38.704;0.152;2023-03-13T07:52:08;4.47;;;3.73;;
10174;SDS011;18221;38.704;0.152;2023-03-13T07:54:36;4.60;;;3.97;;
10174;SDS011;18221;38.704;0.152;2023-03-13T07:57:05;5.63;;;4.60;;
10174;SDS011;18221;38.704;0.152;2023-03-13T07:59:33;7.30;;;4.30;;
10174;SDS011;18221;38.704;0.152;2023-03-13T08:02:02;7.37;;;4.10;;
10174;SDS011;18221;38.704;0.152;2023-03-13T08:04:31;7.63;;;4.13;;
10174;SDS011;18221;38.704;0.152;2023-03-13T08:07:02;5.87;;;3.53;;
10174;SDS011;18221;38.704;0.152;2023-03-13T08:09:34;7.23;;;4.10;;
10174;SDS011;18221;38.704;0.152;2023-03-13T08:12:03;5.13;;;4.10;;
10174;SDS011;18221;38.704;0.152;2023-03-13T08:14:32;6.90;;;4.13;;
10174;SDS011;18221;38.704;0.152;2023-03-13T08:17:00;6.67;;;3.80;;
10174;SDS011;18221;38.704;0.152;2023-03-13T08:19:29;5.13;;;4.53;;
10174;SDS011;18221;38.704;0.152;2023-03-13T08:21:58;6.03;;;4.30;;
10174;SDS011;18221;38.704;0.152;2023-03-13T08:24:28;7.67;;;4.60;;
10174;SDS011;18221;38.704;0.152;2023-03-13T08:26:57;8.43;;;4.53;;
10174;SDS011;18221;38.704;0.152;2023-03-13T08:29:26;7.37;;;4.90;;
10174;SDS011;18221;38.704;0.152;2023-03-13T08:31:54;6.33;;;4.33;;
10174;SDS011;18221;38.704;0.152;2023-03-13T08:34:23;9.20;;;4.37;;
10174;SDS011;18221;38.704;0.152;2023-03-13T08:36:51;6.07;;;4.30;;
10174;SDS011;18221;38.704;0.152;2023-03-13T08:39:21;10.80;;;5.13;;
10174;SDS011;18221;38.704;0.152;2023-03-13T08:41:51;5.03;;;4.33;;
10174;SDS011;18221;38.704;0.152;2023-03-13T08:44:19;6.50;;;4.10;;
10174;SDS011;18221;38.704;0.152;2023-03-13T08:46:47;7.43;;;4.27;;
10174;SDS011;18221;38.704;0.152;2023-03-13T08:49:16;6.47;;;4.90;;
10174;SDS011;18221;38.704;0.152;2023-03-13T08:51:44;8.73;;;5.10;;
10174;SDS011;18221;38.704;0.152;2023-03-13T08:54:13;7.23;;;4.40;;
10174;SDS011;18221;38.704;0.152;2023-03-13T08:56:41;6.50;;;4.70;;
10174;SDS011;18221;38.704;0.152;2023-03-13T08:59:12;8.10;;;5.13;;
10174;SDS011;18221;38.704;0.152;2023-03-13T09:01:40;11.03;;;6.33;;
10174;SDS011;18221;38.704;0.152;2023-03-13T09:04:09;7.60;;;5.13;;
10174;SDS011;18221;38.704;0.152;2023-03-13T09:06:37;11.90;;;6.17;;
10174;SDS011;18221;38.704;0.152;2023-03-13T09:09:06;7.40;;;4.53;;
10174;SDS011;18221;38.704;0.152;2023-03-13T09:11:36;9.67;;;5.60;;
10174;SDS011;18221;38.704;0.152;2023-03-13T09:14:05;8.23;;;5.47;;
10174;SDS011;18221;38.704;0.152;2023-03-13T09:16:37;10.73;;;5.67;;
10174;SDS011;18221;38.704;0.152;2023-03-13T09:19:06;8.93;;;5.70;;
10174;SDS011;18221;38.704;0.152;2023-03-13T09:21:34;7.47;;;5.90;;
10174;SDS011;18221;38.704;0.152;2023-03-13T09:24:03;9.37;;;5.97;;
10174;SDS011;18221;38.704;0.152;2023-03-13T09:26:32;6.60;;;5.07;;
10174;SDS011;18221;38.704;0.152;2023-03-13T09:29:00;10.23;;;5.77;;
10174;SDS011;18221;38.704;0.152;2023-03-13T09:31:31;8.07;;;5.30;;
10174;SDS011;18221;38.704;0.152;2023-03-13T09:34:01;6.47;;;4.13;;
10174;SDS011;18221;38.704;0.152;2023-03-13T09:36:30;7.33;;;4.67;;
10174;SDS011;18221;38.704;0.152;2023-03-13T09:38:58;6.37;;;4.40;;
10174;SDS011;18221;38.704;0.152;2023-03-13T09:41:28;7.03;;;3.90;;
10174;SDS011;18221;38.704;0.152;2023-03-13T09:44:06;5.90;;;4.30;;
10174;SDS011;18221;38.704;0.152;2023-03-13T09:46:44;6.03;;;4.20;;
10174;SDS011;18221;38.704;0.152;2023-03-13T09:49:29;7.07;;;3.90;;
10174;SDS011;18221;38.704;0.152;2023-03-13T09:52:03;6.47;;;3.80;;
10174;SDS011;18221;38.704;0.152;2023-03-13T09:54:42;4.10;;;3.43;;
10174;SDS011;18221;38.704;0.152;2023-03-13T09:57:24;7.97;;;4.27;;
10174;SDS011;18221;38.704;0.152;2023-03-13T10:00:04;5.30;;;3.80;;
10174;SDS011;18221;38.704;0.152;2023-03-13T10:02:40;5.80;;;3.80;;
10174;SDS011;18221;38.704;0.152;2023-03-13T10:05:15;7.73;;;3.87;;
10174;SDS011;18221;38.704;0.152;2023-03-13T10:07:47;5.83;;;4.50;;
10174;SDS011;18221;38.704;0.152;2023-03-13T10:10:26;6.17;;;4.10;;
10174;SDS011;18221;38.704;0.152;2023-03-13T10:13:10;9.83;;;4.20;;
10174;SDS011;18221;38.704;0.152;2023-03-13T10:15:48;7.70;;;4.20;;
10174;SDS011;18221;38.704;0.152;2023-03-13T10:18:23;8.70;;;3.90;;
10174;SDS011;18221;38.704;0.152;2023-03-13T10:20:55;7.17;;;3.53;;
10174;SDS011;18221;38.704;0.152;2023-03-13T10:23:31;4.83;;;3.43;;
10174;SDS011;18221;38.704;0.152;2023-03-13T10:26:10;5.27;;;3.23;;
10174;SDS011;18221;38.704;0.152;2023-03-13T10:28:45;5.87;;;3.00;;
10174;SDS011;18221;38.704;0.152;2023-03-13T10:31:16;6.77;;;3.50;;
10174;SDS011;18221;38.704;0.152;2023-03-13T10:33:51;5.13;;;3.43;;
10174;SDS011;18221;38.704;0.152;2023-03-13T10:36:21;6.13;;;3.30;;
10174;SDS011;18221;38.704;0.152;2023-03-13T10:38:50;4.70;;;3.10;;
10174;SDS011;18221;38.704;0.152;2023-03-13T10:41:22;6.20;;;2.90;;
10174;SDS011;18221;38.704;0.152;2023-03-13T10:43:58;4.30;;;2.83;;
10174;SDS011;18221;38.704;0.152;2023-03-13T10:46:30;3.50;;;2.97;;
10174;SDS011;18221;38.704;0.152;2023-03-13T10:49:12;7.97;;;3.20;;
10174;SDS011;18221;38.704;0.152;2023-03-13T10:51:47;4.83;;;2.97;;
10174;SDS011;18221;38.704;0.152;2023-03-13T10:54:20;4.00;;;2.83;;
10174;SDS011;18221;38.704;0.152;2023-03-13T10:56:52;5.50;;;3.43;;
10174;SDS011;18221;38.704;0.152;2023-03-13T10:59:47;6.93;;;3.10;;
10174;SDS011;18221;38.704;0.152;2023-03-13T11:02:21;6.87;;;2.80;;
10174;SDS011;18221;38.704;0.152;2023-03-13T11:04:54;5.80;;;3.30;;
10174;SDS011;18221;38.704;0.152;2023-03-13T11:07:29;4.83;;;3.00;;
10174;SDS011;18221;38.704;0.152;2023-03-13T11:10:05;4.07;;;3.00;;
10174;SDS011;18221;38.704;0.152;2023-03-13T11:12:46;5.67;;;3.30;;
10174;SDS011;18221;38.704;0.152;2023-03-13T11:15:17;5.67;;;3.23;;
10174;SDS011;18221;38.704;0.152;2023-03-13T11:17:56;5.97;;;3.07;;
10174;SDS011;18221;38.704;0.152;2023-03-13T11:20:32;6.57;;;3.40;;
10174;SDS011;18221;38.704;0.152;2023-03-13T11:23:10;7.60;;;3.30;;
10174;SDS011;18221;38.704;0.152;2023-03-13T11:25:53;5.03;;;3.20;;
10174;SDS011;18221;38.704;0.152;2023-03-13T11:28:38;7.53;;;3.23;;
10174;SDS011;18221;38.704;0.152;2023-03-13T11:31:18;5.33;;;3.20;;
10174;SDS011;18221;38.704;0.152;2023-03-13T11:33:54;4.27;;;2.97;;
10174;SDS011;18221;38.704;0.152;2023-03-13T11:36:32;5.40;;;3.00;;
10174;SDS011;18221;38.704;0.152;2023-03-13T11:39:13;3.97;;;2.90;;
10174;SDS011;18221;38.704;0.152;2023-03-13T11:42:17;7.23;;;3.50;;
10174;SDS011;18221;38.704;0.152;2023-03-13T11:45:28;5.23;;;3.37;;
10174;SDS011;18221;38.704;0.152;2023-03-13T11:48:34;5.53;;;3.00;;
10174;SDS011;18221;38.704;0.152;2023-03-13T11:51:23;5.73;;;3.27;;
10174;SDS011;18221;38.704;0.152;2023-03-13T11:54:03;5.43;;;3.00;;
10174;SDS011;18221;38.704;0.152;2023-03-13T11:57:09;7.47;;;2.70;;
10174;SDS011;18221;38.704;0.152;2023-03-13T11:59:46;6.00;;;2.80;;
10174;SDS011;18221;38.704;0.152;2023-03-13T12:02:30;7.73;;;3.27;;
10174;SDS011;18221;38.704;0.152;2023-03-13T12:05:06;6.00;;;3.27;;
10174;SDS011;18221;38.704;0.152;2023-03-13T12:07:40;4.37;;;2.90;;
10174;SDS011;18221;38.704;0.152;2023-03-13T12:10:18;5.63;;;3.10;;
10174;SDS011;18221;38.704;0.152;2023-03-13T12:12:55;6.33;;;3.27;;
10174;SDS011;18221;38.704;0.152;2023-03-13T12:15:34;5.57;;;2.80;;
10174;SDS011;18221;38.704;0.152;2023-03-13T12:18:12;5.13;;;3.17;;
10174;SDS011;18221;38.704;0.152;2023-03-13T12:20:51;4.60;;;3.47;;
10174;SDS011;18221;38.704;0.152;2023-03-13T12:23:28;6.37;;;3.23;;
10174;SDS011;18221;38.704;0.152;2023-03-13T12:26:11;5.73;;;3.40;;
10174;SDS011;18221;38.704;0.152;2023-03-13T12:28:42;5.17;;;3.60;;
10174;SDS011;18221;38.704;0.152;2023-03-13T12:31:21;5.80;;;3.70;;
10174;SDS011;18221;38.704;0.152;2023-03-13T12:33:59;6.70;;;4.00;;
10174;SDS011;18221;38.704;0.152;2023-03-13T12:36:42;6.03;;;3.00;;
10174;SDS011;18221;38.704;0.152;2023-03-13T12:39:19;4.73;;;3.10;;
10174;SDS011;18221;38.704;0.152;2023-03-13T12:42:11;5.37;;;3.10;;
10174;SDS011;18221;38.704;0.152;2023-03-13T12:44:49;6.83;;;2.87;;
10174;SDS011;18221;38.704;0.152;2023-03-13T12:47:19;5.43;;;2.50;;
10174;SDS011;18221;38.704;0.152;2023-03-13T12:50:03;4.40;;;2.70;;
10174;SDS011;18221;38.704;0.152;2023-03-13T12:56:14;4.53;;;3.00;;
10174;SDS011;18221;38.704;0.152;2023-03-13T12:59:22;4.30;;;3.00;;
10174;SDS011;18221;38.704;0.152;2023-03-13T13:01:58;7.37;;;2.80;;
10174;SDS011;18221;38.704;0.152;2023-03-13T13:04:43;4.97;;;3.00;;
10174;SDS011;18221;38.704;0.152;2023-03-13T13:07:19;5.70;;;3.03;;
10174;SDS011;18221;38.704;0.152;2023-03-13T13:10:02;5.43;;;3.10;;
10174;SDS011;18221;38.704;0.152;2023-03-13T13:12:45;5.40;;;2.87;;
10174;SDS011;18221;38.704;0.152;2023-03-13T13:15:56;4.27;;;2.77;;
10174;SDS011;18221;38.704;0.152;2023-03-13T13:18:28;4.63;;;2.90;;
10174;SDS011;18221;38.704;0.152;2023-03-13T13:23:53;4.43;;;3.00;;
10174;SDS011;18221;38.704;0.152;2023-03-13T13:36:24;3.53;;;2.70;;
10174;SDS011;18221;38.704;0.152;2023-03-13T13:38:57;2.73;;;2.30;;
10174;SDS011;18221;38.704;0.152;2023-03-13T13:41:31;5.43;;;2.90;;
10174;SDS011;18221;38.704;0.152;2023-03-13T13:46:55;4.53;;;2.70;;
10174;SDS011;18221;38.704;0.152;2023-03-13T13:52:32;4.07;;;3.03;;
10174;SDS011;18221;38.704;0.152;2023-03-13T13:58:11;3.83;;;2.77;;
10174;SDS011;18221;38.704;0.152;2023-03-13T14:00:49;5.93;;;3.33;;
10174;SDS011;18221;38.704;0.152;2023-03-13T14:03:23;4.80;;;3.00;;
10174;SDS011;18221;38.704;0.152;2023-03-13T14:05:58;3.87;;;2.93;;
10174;SDS011;18221;38.704;0.152;2023-03-13T14:08:38;6.47;;;3.37;;
10174;SDS011;18221;38.704;0.152;2023-03-13T14:11:17;5.40;;;3.50;;
10174;SDS011;18221;38.704;0.152;2023-03-13T14:14:12;3.80;;;3.47;;
10174;SDS011;18221;38.704;0.152;2023-03-13T14:16:43;5.93;;;3.43;;
10174;SDS011;18221;38.704;0.152;2023-03-13T14:19:21;5.93;;;3.60;;
10174;SDS011;18221;38.704;0.152;2023-03-13T14:21:59;6.37;;;4.03;;
10174;SDS011;18221;38.704;0.152;2023-03-13T14:24:29;5.00;;;3.63;;
10174;SDS011;18221;38.704;0.152;2023-03-13T14:26:57;7.77;;;4.00;;
10174;SDS011;18221;38.704;0.152;2023-03-13T14:29:26;4.93;;;4.10;;
10174;SDS011;18221;38.704;0.152;2023-03-13T14:31:55;6.30;;;3.90;;
10174;SDS011;18221;38.704;0.152;2023-03-13T14:34:25;9.43;;;4.23;;
10174;SDS011;18221;38.704;0.152;2023-03-13T14:36:55;6.50;;;3.70;;
10174;SDS011;18221;38.704;0.152;2023-03-13T14:39:35;6.53;;;4.20;;
10174;SDS011;18221;38.704;0.152;2023-03-13T14:42:10;4.90;;;3.40;;
10174;SDS011;18221;38.704;0.152;2023-03-13T14:44:41;5.23;;;3.77;;
10174;SDS011;18221;38.704;0.152;2023-03-13T14:47:16;6.30;;;3.47;;
10174;SDS011;18221;38.704;0.152;2023-03-13T14:49:55;5.13;;;3.37;;
10174;SDS011;18221;38.704;0.152;2023-03-13T14:52:28;4.37;;;3.90;;
10174;SDS011;18221;38.704;0.152;2023-03-13T14:54:59;6.40;;;4.20;;
10174;SDS011;18221;38.704;0.152;2023-03-13T14:57:31;6.37;;;4.23;;
10174;SDS011;18221;38.704;0.152;2023-03-13T15:03:15;6.17;;;4.57;;
10174;SDS011;18221;38.704;0.152;2023-03-13T15:06:00;7.60;;;5.30;;
10174;SDS011;18221;38.704;0.152;2023-03-13T15:08:35;10.43;;;5.47;;
10174;SDS011;18221;38.704;0.152;2023-03-13T15:11:16;7.53;;;5.03;;
10174;SDS011;18221;38.704;0.152;2023-03-13T15:13:56;6.33;;;4.60;;
10174;SDS011;18221;38.704;0.152;2023-03-13T15:16:25;7.97;;;4.87;;
10174;SDS011;18221;38.704;0.152;2023-03-13T15:18:55;6.47;;;4.50;;
10174;SDS011;18221;38.704;0.152;2023-03-13T15:21:25;6.87;;;4.97;;
10174;SDS011;18221;38.704;0.152;2023-03-13T15:23:59;7.30;;;4.87;;
10174;SDS011;18221;38.704;0.152;2023-03-13T15:26:38;10.37;;;5.27;;
10174;SDS011;18221;38.704;0.152;2023-03-13T15:29:07;8.50;;;4.87;;
10174;SDS011;18221;38.704;0.152;2023-03-13T15:31:39;7.63;;;5.70;;
10174;SDS011;18221;38.704;0.152;2023-03-13T15:34:12;8.63;;;5.00;;
10174;SDS011;18221;38.704;0.152;2023-03-13T15:36:41;9.30;;;5.20;;
10174;SDS011;18221;38.704;0.152;2023-03-13T15:39:14;8.10;;;4.83;;
10174;SDS011;18221;38.704;0.152;2023-03-13T15:41:45;6.97;;;5.57;;
10174;SDS011;18221;38.704;0.152;2023-03-13T15:44:13;9.37;;;5.60;;